This is the latest recevied weather packets stored in our database for station/object SP2FH-13. If no packets are shown the sender has not sent any weather packets the latest 1 day(s).
| Time | Temp. | Humidity | Pressure | Rain* | Wind** | Luminosity | Snow |
|---|---|---|---|---|---|---|---|
| 1778067326 | 19.44° C | 54% | 994.4 hPa | - | - | 322 W/m² | - |
| 1778067025 | 20° C | 52% | 994.3 hPa | - | - | 365 W/m² | - |
| 1778066724 | 19.44° C | 51% | 994.3 hPa | - | - | 554 W/m² | - |
| 1778066423 | 20° C | 53% | 994.3 hPa | - | - | 521 W/m² | - |
| 1778066122 | 20° C | 52% | 994.3 hPa | - | - | 523 W/m² | - |
| 1778065821 | 20° C | 55% | 994.1 hPa | - | - | 574 W/m² | - |
| 1778065519 | 20.56° C | 51% | 994.1 hPa | - | - | 313 W/m² | - |
| 1778065218 | 20.56° C | 54% | 994.1 hPa | - | - | 446 W/m² | - |
| 1778064314 | 20.56° C | 51% | 994.2 hPa | - | - | 783 W/m² | - |
| 1778064012 | 20.56° C | 54% | 994.1 hPa | - | - | 324 W/m² | - |
| 1778063712 | 20.56° C | 52% | 994.1 hPa | - | - | 779 W/m² | - |
| 1778063410 | 20.56° C | 53% | 994.1 hPa | - | - | 352 W/m² | - |
| 1778062808 | 20° C | 54% | 994 hPa | - | - | 411 W/m² | - |
| 1778062506 | 21.11° C | 51% | 993.9 hPa | - | - | 642 W/m² | - |
| 1778061302 | 20° C | 55% | 993.9 hPa | - | - | 312 W/m² | - |
| 1778061000 | 19.44° C | 56% | 993.9 hPa | - | - | 459 W/m² | - |
| 1778060699 | 19.44° C | 56% | 993.9 hPa | - | - | 421 W/m² | - |
| 1778060096 | 19.44° C | 58% | 993.8 hPa | - | - | 280 W/m² | - |
| 1778059794 | 18.89° C | 59% | 993.8 hPa | - | - | 270 W/m² | - |
| 1778058288 | 18.33° C | 59% | 993.9 hPa | - | - | 204 W/m² | - |
| 1778057987 | 18.33° C | 58% | 993.8 hPa | - | - | 189 W/m² | - |
| 1778057685 | 18.33° C | 58% | 993.8 hPa | - | - | 322 W/m² | - |
| 1778057384 | 18.33° C | 57% | 993.8 hPa | - | - | 290 W/m² | - |
| 1778056782 | 17.78° C | 58% | 993.8 hPa | - | - | 405 W/m² | - |
| 1778055878 | 17.22° C | 60% | 994.2 hPa | - | - | 418 W/m² | - |
* Rain since midnight (hover to see other rain measurements)
** Current wind speed in m/s (hover to see current wind gust speed)